Time;durP1;ratioP1;P1;durP2;ratioP2;P2;SDS_P1;SDS_P2;PMS_P1;PMS_P2;Temp;Humidity;BMP_temperature;BMP_pressure;BME280_temperature;BME280_humidity;BME280_pressure;Samples;Min_cycle;Max_cycle;Signal;HPM_P1;HPM_P2
2023/05/25 00:00:17;;;;;;;17.30;4.53;;;10.40;99.90;;;;;;5013468;28;21043;-66
2023/05/25 00:02:45;;;;;;;14.30;4.07;;;10.60;99.90;;;;;;4997400;28;20663;-66
2023/05/25 00:05:11;;;;;;;14.77;4.40;;;10.70;99.90;;;;;;5010992;28;20041;-66
2023/05/25 00:07:38;;;;;;;17.38;4.18;;;10.70;99.90;;;;;;5046785;28;20052;-66
2023/05/25 00:10:07;;;;;;;16.20;3.60;;;10.60;99.90;;;;;;5046156;28;20040;-66
2023/05/25 00:12:33;;;;;;;17.45;4.43;;;10.70;99.90;;;;;;5015431;28;20041;-66
2023/05/25 00:14:59;;;;;;;16.60;4.03;;;10.70;99.90;;;;;;5029495;28;20069;-66
2023/05/25 00:17:30;;;;;;;16.25;4.60;;;10.70;99.90;;;;;;4997387;28;20041;-66
2023/05/25 00:20:08;;;;;;;17.85;4.07;;;10.60;99.90;;;;;;4997655;28;20346;-67
2023/05/25 00:22:35;;;;;;;16.45;4.32;;;10.60;99.90;;;;;;5048785;28;20041;-67
2023/05/25 00:25:05;;;;;;;16.13;4.45;;;10.50;99.90;;;;;;5012377;28;20094;-66
2023/05/25 00:27:31;;;;;;;15.50;4.47;;;10.50;99.90;;;;;;5017420;28;20042;-66
2023/05/25 00:29:57;;;;;;;18.00;5.95;;;10.40;99.90;;;;;;5013209;28;20068;-66
2023/05/25 00:32:23;;;;;;;20.38;5.50;;;10.20;99.90;;;;;;4997504;28;20307;-66
2023/05/25 00:34:49;;;;;;;20.50;5.55;;;10.20;99.90;;;;;;5012956;28;20121;-67
2023/05/25 00:37:15;;;;;;;21.45;6.32;;;10.10;99.90;;;;;;5020327;28;20435;-66
2023/05/25 00:39:40;;;;;;;20.15;4.95;;;10.10;99.90;;;;;;5044974;28;20047;-66
2023/05/25 00:42:06;;;;;;;20.33;6.00;;;10.10;99.90;;;;;;5034306;28;20231;-66
2023/05/25 00:44:33;;;;;;;19.23;5.35;;;10.10;99.90;;;;;;5031105;28;20103;-66
2023/05/25 00:47:01;;;;;;;15.60;4.93;;;10.00;99.90;;;;;;5021999;28;20179;-66
2023/05/25 00:49:29;;;;;;;16.60;5.47;;;10.00;99.90;;;;;;5045993;28;20045;-67
2023/05/25 00:51:56;;;;;;;18.83;4.95;;;10.00;99.90;;;;;;5045972;28;20037;-66
2023/05/25 00:54:22;;;;;;;13.27;5.10;;;10.00;99.90;;;;;;4995396;28;20164;-66
2023/05/25 00:57:03;;;;;;;15.18;5.28;;;10.00;99.90;;;;;;5012847;28;20359;-66
2023/05/25 00:59:43;;;;;;;19.65;5.43;;;10.00;99.90;;;;;;5016204;28;20068;-66
2023/05/25 01:02:16;;;;;;;18.25;5.47;;;9.90;99.90;;;;;;5002021;28;20049;-66
2023/05/25 01:04:51;;;;;;;17.42;5.88;;;10.00;99.90;;;;;;5030078;28;20081;-66
2023/05/25 01:07:27;;;;;;;23.38;5.97;;;10.00;99.90;;;;;;5024645;28;20497;-67
2023/05/25 01:10:14;;;;;;;19.08;5.75;;;10.00;99.90;;;;;;5030551;28;20082;-66
2023/05/25 01:12:43;;;;;;;21.88;6.70;;;9.90;99.90;;;;;;5015434;28;20492;-66
2023/05/25 01:15:09;;;;;;;26.27;7.00;;;9.90;99.90;;;;;;5011571;28;20399;-66
2023/05/25 01:17:38;;;;;;;24.85;7.10;;;9.90;99.90;;;;;;5012307;28;20053;-66
2023/05/25 01:20:06;;;;;;;19.90;6.53;;;9.90;99.90;;;;;;5011604;28;20517;-66
2023/05/25 01:22:39;;;;;;;20.90;7.65;;;9.90;99.90;;;;;;5058440;28;20411;-66
2023/05/25 01:25:12;;;;;;;18.65;6.50;;;9.90;99.90;;;;;;4996142;28;20171;-66
2023/05/25 01:28:04;;;;;;;;;;;9.90;99.90;;;;;;5036187;28;20041;-66
2023/05/25 01:30:32;;;;;;;18.75;6.75;;;9.80;99.90;;;;;;5028365;28;19921;-66
2023/05/25 01:32:59;;;;;;;18.42;5.75;;;9.90;99.90;;;;;;5022217;28;20475;-66
2023/05/25 01:35:27;;;;;;;20.20;6.28;;;9.90;99.90;;;;;;4995474;28;20037;-66
2023/05/25 01:37:52;;;;;;;23.67;6.28;;;9.90;99.90;;;;;;5013064;28;20475;-66
2023/05/25 01:40:18;;;;;;;18.25;5.78;;;9.90;99.90;;;;;;5012650;28;20077;-66
2023/05/25 01:42:44;;;;;;;22.63;5.90;;;10.00;99.90;;;;;;5031023;28;20066;-66
2023/05/25 01:45:11;;;;;;;21.50;6.18;;;9.90;99.90;;;;;;5013100;28;20068;-66
2023/05/25 01:47:52;;;;;;;18.50;6.15;;;9.90;99.90;;;;;;5015082;28;20863;-66
2023/05/25 01:50:32;;;;;;;23.75;6.40;;;9.90;99.90;;;;;;5029458;28;20037;-66
2023/05/25 01:53:40;;;;;;;21.55;6.40;;;9.80;99.90;;;;;;5002407;28;20041;-66
2023/05/25 01:56:08;;;;;;;18.60;6.30;;;9.70;99.90;;;;;;5040940;28;20132;-66
2023/05/25 01:58:37;;;;;;;19.58;6.78;;;9.60;99.90;;;;;;4994908;28;20056;-66
2023/05/25 02:01:03;;;;;;;19.02;6.10;;;9.70;99.90;;;;;;5011785;28;20565;-66
2023/05/25 02:03:29;;;;;;;17.25;6.35;;;9.60;99.90;;;;;;5010832;28;20340;-66
2023/05/25 02:05:56;;;;;;;19.90;6.65;;;9.60;99.90;;;;;;5019041;28;20207;-66
2023/05/25 02:08:22;;;;;;;17.85;5.90;;;9.60;99.90;;;;;;5010933;28;20094;-66
2023/05/25 02:10:48;;;;;;;19.35;6.53;;;9.70;99.90;;;;;;4977979;28;20045;-66
2023/05/25 02:13:14;;;;;;;21.30;7.32;;;9.70;99.90;;;;;;5044874;28;20846;-66
2023/05/25 02:15:39;;;;;;;20.67;7.10;;;9.60;99.90;;;;;;5003145;28;20071;-66
2023/05/25 02:18:05;;;;;;;18.65;7.50;;;9.50;99.90;;;;;;5011838;28;20953;-66
2023/05/25 02:20:31;;;;;;;21.15;8.70;;;9.50;99.90;;;;;;4995379;28;20046;-66
2023/05/25 02:22:57;;;;;;;20.92;8.35;;;9.40;99.90;;;;;;5011857;28;20103;-66
2023/05/25 02:25:23;;;;;;;24.98;9.05;;;9.20;99.90;;;;;;4994571;28;20042;-66
2023/05/25 02:27:49;;;;;;;25.95;10.15;;;9.10;99.90;;;;;;5027367;28;20049;-66
2023/05/25 02:30:14;;;;;;;22.67;9.35;;;9.00;99.90;;;;;;5026817;28;20041;-66
2023/05/25 02:32:40;;;;;;;19.92;9.32;;;8.80;99.90;;;;;;5011567;28;20052;-66
2023/05/25 02:35:06;;;;;;;17.58;9.25;;;8.70;99.90;;;;;;5011480;28;20551;-66
2023/05/25 02:37:32;;;;;;;23.65;10.15;;;8.60;99.90;;;;;;5020197;28;20052;-66
2023/05/25 02:39:58;;;;;;;25.00;10.60;;;8.50;99.90;;;;;;5000380;28;20446;-66
2023/05/25 02:42:24;;;;;;;23.25;10.43;;;8.40;99.90;;;;;;5010963;28;20120;-66
2023/05/25 02:44:50;;;;;;;22.50;10.35;;;8.40;99.90;;;;;;5043804;28;20057;-66
2023/05/25 02:47:20;;;;;;;24.27;10.77;;;8.30;99.90;;;;;;5045968;28;20269;-66
2023/05/25 02:49:46;;;;;;;19.83;9.60;;;8.30;99.90;;;;;;5046626;28;20239;-66
2023/05/25 02:52:12;;;;;;;22.00;10.32;;;8.30;99.90;;;;;;5012636;28;20056;-66
2023/05/25 02:54:38;;;;;;;23.33;10.50;;;8.40;99.90;;;;;;5012275;28;20124;-66
2023/05/25 02:57:04;;;;;;;26.33;9.68;;;8.40;99.90;;;;;;5010348;28;20179;-66
2023/05/25 02:59:30;;;;;;;24.95;10.52;;;8.40;99.90;;;;;;5012596;28;20505;-66
2023/05/25 03:01:57;;;;;;;24.77;10.23;;;8.50;99.90;;;;;;5011345;28;20053;-66
2023/05/25 03:04:23;;;;;;;21.92;9.30;;;8.60;99.90;;;;;;5030088;28;20075;-66
2023/05/25 03:06:49;;;;;;;26.65;9.63;;;8.60;99.90;;;;;;5014861;28;20523;-66
2023/05/25 03:09:14;;;;;;;25.20;9.48;;;8.50;99.90;;;;;;5014453;28;20044;-66
2023/05/25 03:11:40;;;;;;;20.70;9.20;;;8.70;99.90;;;;;;5047371;28;20037;-66
2023/05/25 03:14:06;;;;;;;28.10;9.50;;;8.80;99.90;;;;;;5028633;28;20041;-66
2023/05/25 03:16:34;;;;;;;30.55;8.40;;;8.90;99.90;;;;;;5009128;28;20056;-66
2023/05/25 03:19:01;;;;;;;25.13;8.70;;;9.20;1.00;;;;;;4999790;28;20510;-66
2023/05/25 03:21:27;;;;;;;19.52;6.72;;;9.30;1.00;;;;;;5015506;28;20547;-65
2023/05/25 03:23:53;;;;;;;24.25;6.35;;;9.60;89.70;;;;;;5047908;28;20133;-65
2023/05/25 03:26:19;;;;;;;19.65;5.97;;;9.80;99.90;;;;;;5014291;28;20404;-65
2023/05/25 03:28:44;;;;;;;21.17;6.03;;;10.00;99.90;;;;;;5014317;28;20056;-65
2023/05/25 03:31:11;;;;;;;15.70;5.60;;;10.10;99.90;;;;;;5015581;28;20180;-65
2023/05/25 03:33:37;;;;;;;18.10;5.68;;;10.40;99.90;;;;;;5031508;28;20186;-65
2023/05/25 03:36:11;;;;;;;15.85;4.70;;;10.40;99.90;;;;;;5014774;28;20183;-65
2023/05/25 03:38:37;;;;;;;20.73;5.60;;;10.70;99.90;;;;;;5064165;28;20056;-65
2023/05/25 03:41:03;;;;;;;20.52;5.15;;;10.70;99.90;;;;;;5014022;28;20045;-65
2023/05/25 03:43:29;;;;;;;20.30;4.35;;;10.90;99.90;;;;;;5016158;28;20088;-65
2023/05/25 03:45:55;;;;;;;16.00;4.57;;;11.00;99.90;;;;;;5015437;28;20050;-65
2023/05/25 03:48:20;;;;;;;18.05;4.50;;;11.00;99.90;;;;;;5013462;28;20052;-65
2023/05/25 03:50:46;;;;;;;14.10;4.30;;;11.10;99.90;;;;;;5038138;28;20057;-66
2023/05/25 03:53:11;;;;;;;16.67;4.55;;;11.10;99.90;;;;;;5014532;28;20049;-66
2023/05/25 03:55:37;;;;;;;18.45;4.40;;;11.00;85.80;;;;;;5014198;28;20045;-66
2023/05/25 03:58:03;;;;;;;15.30;3.63;;;11.00;62.10;;;;;;5014058;28;20045;-66
2023/05/25 04:00:28;;;;;;;14.77;3.72;;;11.10;59.20;;;;;;4998447;28;20123;-66
2023/05/25 04:02:55;;;;;;;19.42;4.38;;;11.10;21.00;;;;;;4998357;28;20144;-66
2023/05/25 04:05:21;;;;;;;13.82;4.00;;;11.10;14.00;;;;;;4998175;28;20515;-66
2023/05/25 04:07:47;;;;;;;16.63;3.65;;;11.10;1.00;;;;;;5013912;28;20287;-66
2023/05/25 04:10:13;;;;;;;18.48;3.72;;;11.10;1.00;;;;;;5012363;28;20060;-66
2023/05/25 04:12:39;;;;;;;14.25;4.00;;;11.10;1.00;;;;;;5014525;28;20372;-65
2023/05/25 04:15:08;;;;;;;19.35;4.00;;;11.10;1.00;;;;;;4998259;28;20137;-66
2023/05/25 04:17:34;;;;;;;16.80;3.30;;;11.10;1.00;;;;;;5003522;28;20469;-65
2023/05/25 04:20:01;;;;;;;20.33;3.92;;;11.10;1.00;;;;;;5036357;28;20128;-66
2023/05/25 04:22:27;;;;;;;21.98;3.63;;;11.10;1.00;;;;;;5014016;28;20133;-65
2023/05/25 04:24:53;;;;;;;17.13;3.63;;;11.10;99.90;;;;;;4998911;28;20029;-65
2023/05/25 04:27:19;;;;;;;14.40;3.15;;;11.10;99.90;;;;;;5031478;28;20156;-65
2023/05/25 04:29:45;;;;;;;17.85;3.38;;;11.20;99.90;;;;;;5014718;28;20053;-65
2023/05/25 04:32:16;;;;;;;13.15;2.95;;;11.20;99.90;;;;;;5013056;28;20175;-65
2023/05/25 04:34:43;;;;;;;17.45;3.45;;;11.20;99.90;;;;;;5023137;28;20274;-65
2023/05/25 04:37:09;;;;;;;13.70;3.08;;;11.30;99.90;;;;;;5013167;28;20049;-65
2023/05/25 04:39:38;;;;;;;15.60;2.70;;;11.40;99.90;;;;;;5046713;28;20196;-65
2023/05/25 04:42:04;;;;;;;12.70;3.70;;;11.40;99.90;;;;;;4981069;28;20565;-65
2023/05/25 04:44:33;;;;;;;12.65;2.58;;;11.50;99.90;;;;;;4996612;28;20052;-65
2023/05/25 04:47:00;;;;;;;10.40;2.65;;;11.50;99.90;;;;;;5041873;28;20110;-65
2023/05/25 04:49:26;;;;;;;13.07;2.85;;;11.50;99.90;;;;;;5013668;28;20361;-65
2023/05/25 04:51:52;;;;;;;14.80;3.17;;;11.60;99.90;;;;;;5058151;28;20064;-66
2023/05/25 04:54:18;;;;;;;13.50;2.70;;;11.60;99.90;;;;;;5029037;28;20079;-65
2023/05/25 04:56:44;;;;;;;9.13;1.80;;;11.80;99.90;;;;;;5011596;28;20081;-65
2023/05/25 04:59:10;;;;;;;11.02;2.40;;;11.80;99.90;;;;;;5028072;28;20088;-65
2023/05/25 05:01:41;;;;;;;16.50;2.65;;;11.80;99.90;;;;;;4995587;28;20584;-67
2023/05/25 05:04:07;;;;;;;13.48;2.20;;;11.90;99.90;;;;;;5069815;28;20051;-64
2023/05/25 05:06:33;;;;;;;11.75;2.40;;;12.00;99.90;;;;;;5028302;28;20054;-65
2023/05/25 05:09:00;;;;;;;14.88;2.38;;;12.00;99.90;;;;;;5011475;28;20034;-65
2023/05/25 05:11:27;;;;;;;13.43;2.28;;;12.00;99.90;;;;;;5061178;28;20136;-65
2023/05/25 05:13:54;;;;;;;17.90;2.58;;;12.10;99.90;;;;;;5043062;28;20129;-66
2023/05/25 05:16:20;;;;;;;12.52;2.75;;;12.20;99.90;;;;;;5016218;28;20033;-65
2023/05/25 05:18:46;;;;;;;11.20;2.22;;;12.30;99.90;;;;;;5013073;28;20052;-65
2023/05/25 05:21:11;;;;;;;16.00;2.85;;;12.40;99.90;;;;;;5034418;28;20171;-66
2023/05/25 05:23:37;;;;;;;15.88;2.83;;;12.40;90.30;;;;;;5030540;28;20059;-65
2023/05/25 05:26:03;;;;;;;13.55;2.90;;;12.50;1.00;;;;;;5061541;28;20113;-65
2023/05/25 05:28:29;;;;;;;11.00;2.30;;;12.60;33.90;;;;;;5029034;28;20045;-66
2023/05/25 05:30:56;;;;;;;13.90;2.60;;;12.60;1.00;;;;;;5019799;28;20103;-66
2023/05/25 05:33:22;;;;;;;13.70;2.85;;;12.60;1.00;;;;;;5011742;28;20046;-66
2023/05/25 05:35:51;;;;;;;16.45;3.05;;;12.80;1.00;;;;;;5045310;28;20054;-65
2023/05/25 05:38:17;;;;;;;15.00;3.00;;;12.80;1.00;;;;;;5029234;28;20429;-65
2023/05/25 05:40:43;;;;;;;14.77;3.15;;;12.80;99.90;;;;;;5011236;28;20108;-65
2023/05/25 05:43:28;;;;;;;14.45;3.17;;;12.80;99.90;;;;;;5046023;28;20037;-65
2023/05/25 05:45:54;;;;;;;17.80;3.05;;;12.70;99.90;;;;;;5028407;28;20061;-64
2023/05/25 05:48:20;;;;;;;16.48;3.35;;;12.80;99.90;;;;;;5048487;28;20080;-66
2023/05/25 05:50:46;;;;;;;13.68;2.42;;;12.80;99.90;;;;;;5060933;28;20038;-64
2023/05/25 05:53:11;;;;;;;20.42;3.10;;;12.90;99.90;;;;;;5009541;28;20037;-66
2023/05/25 05:55:37;;;;;;;19.25;3.30;;;12.90;99.90;;;;;;5013362;28;20153;-66
2023/05/25 05:58:03;;;;;;;14.70;2.97;;;13.00;99.90;;;;;;5019389;28;20041;-65
2023/05/25 06:00:28;;;;;;;21.10;3.03;;;13.00;99.90;;;;;;5014263;28;20077;-65
2023/05/25 06:02:54;;;;;;;20.30;3.40;;;13.00;99.90;;;;;;5027577;28;20632;-65
2023/05/25 06:05:20;;;;;;;22.27;4.10;;;13.10;99.90;;;;;;5011249;28;20038;-66
2023/05/25 06:07:46;;;;;;;16.15;3.08;;;13.00;99.90;;;;;;5045826;28;20045;-65
2023/05/25 06:10:12;;;;;;;18.17;3.63;;;13.10;99.90;;;;;;5012875;28;20084;-66
2023/05/25 06:12:38;;;;;;;20.90;3.95;;;13.00;99.90;;;;;;5028460;28;20047;-65
2023/05/25 06:15:05;;;;;;;22.13;3.67;;;13.00;99.90;;;;;;5027440;28;20037;-65
2023/05/25 06:17:30;;;;;;;20.52;4.00;;;13.10;99.90;;;;;;5030474;28;20099;-65
2023/05/25 06:19:56;;;;;;;22.85;3.72;;;13.40;99.90;;;;;;5044624;28;20044;-65
2023/05/25 06:22:24;;;;;;;21.45;3.67;;;13.60;99.90;;;;;;5029843;28;20128;-65
2023/05/25 06:24:49;;;;;;;22.38;3.72;;;13.80;99.90;;;;;;5052896;28;20041;-67
2023/05/25 06:27:16;;;;;;;20.58;4.07;;;13.70;99.90;;;;;;5012542;28;20071;-66
2023/05/25 06:29:42;;;;;;;22.65;4.00;;;13.90;99.90;;;;;;5012720;28;20043;-66
2023/05/25 06:32:09;;;;;;;20.67;4.18;;;13.90;99.90;;;;;;5011715;28;20954;-65
2023/05/25 06:34:35;;;;;;;18.48;4.10;;;13.80;99.90;;;;;;5029715;28;20037;-66
2023/05/25 06:40:36;;;;;;;16.42;3.40;;;14.10;99.90;;;;;;5066502;28;20052;-65
2023/05/25 06:43:01;;;;;;;17.50;3.45;;;14.60;99.90;;;;;;5057014;28;20038;-66
2023/05/25 06:45:27;;;;;;;19.60;3.53;;;14.90;99.90;;;;;;5031761;28;20137;-65
2023/05/25 06:47:53;;;;;;;23.05;4.05;;;14.80;99.90;;;;;;5021388;28;20510;-67
2023/05/25 06:50:18;;;;;;;21.58;3.67;;;14.80;99.90;;;;;;5016362;28;20124;-66
2023/05/25 06:52:45;;;;;;;22.67;4.28;;;15.10;99.90;;;;;;5048825;28;20037;-65
2023/05/25 06:55:11;;;;;;;19.95;3.67;;;15.40;99.90;;;;;;5016075;28;20057;-66
2023/05/25 06:57:37;;;;;;;21.58;4.10;;;15.70;1.00;;;;;;5014977;28;20518;-65
2023/05/25 07:00:10;;;;;;;20.70;4.32;;;16.10;1.00;;;;;;5031168;28;20052;-65
2023/05/25 07:02:36;;;;;;;24.20;4.38;;;16.20;1.00;;;;;;5050018;28;20091;-65
2023/05/25 07:05:04;;;;;;;23.33;4.03;;;16.40;99.90;;;;;;5065217;28;20037;-65
2023/05/25 07:07:30;;;;;;;19.73;4.00;;;16.60;99.90;;;;;;5000673;28;20096;-65
2023/05/25 07:09:58;;;;;;;21.60;4.30;;;16.60;99.90;;;;;;5030420;28;20053;-65
2023/05/25 07:12:26;;;;;;;21.83;4.00;;;16.70;99.90;;;;;;5049281;28;20037;-65
2023/05/25 07:14:52;;;;;;;23.08;4.47;;;16.70;99.90;;;;;;5060301;28;20372;-64
2023/05/25 07:17:18;;;;;;;27.08;4.63;;;16.90;99.90;;;;;;5030247;28;20056;-63
2023/05/25 07:19:44;;;;;;;24.13;4.40;;;16.90;99.90;;;;;;5020237;28;20047;-66
2023/05/25 07:22:09;;;;;;;20.50;4.00;;;17.00;99.90;;;;;;5032573;28;20045;-64
2023/05/25 07:24:36;;;;;;;24.30;4.60;;;16.70;99.90;;;;;;5044865;28;20384;-67
2023/05/25 07:27:02;;;;;;;24.60;4.15;;;16.40;99.90;;;;;;5029949;28;20107;-66
2023/05/25 07:29:28;;;;;;;27.75;4.13;;;15.90;99.90;;;;;;5012907;28;20077;-68
2023/05/25 07:31:54;;;;;;;21.55;4.43;;;15.70;99.90;;;;;;5063394;28;20119;-66
2023/05/25 07:34:20;;;;;;;24.58;4.82;;;15.90;99.90;;;;;;5029116;28;20038;-67
2023/05/25 07:36:46;;;;;;;31.02;5.78;;;16.00;99.90;;;;;;5030911;28;20055;-66
2023/05/25 07:39:11;;;;;;;22.60;4.75;;;16.00;99.90;;;;;;5012709;28;20049;-69
2023/05/25 07:41:38;;;;;;;25.85;4.63;;;15.80;99.90;;;;;;5029336;28;20553;-66
2023/05/25 07:44:04;;;;;;;26.23;4.20;;;15.50;99.90;;;;;;5014536;28;20479;-67
2023/05/25 07:46:30;;;;;;;24.17;4.88;;;15.70;99.90;;;;;;5046255;28;20107;-67
2023/05/25 07:48:57;;;;;;;27.35;4.82;;;15.80;99.90;;;;;;5029726;28;20045;-66
2023/05/25 07:51:25;;;;;;;25.38;4.80;;;15.90;99.90;;;;;;5063968;28;20030;-66
2023/05/25 07:53:52;;;;;;;21.70;4.40;;;15.90;99.90;;;;;;5017164;28;20044;-67
2023/05/25 07:56:18;;;;;;;24.83;4.60;;;15.90;99.90;;;;;;5048952;28;20104;-66
2023/05/25 07:58:45;;;;;;;23.48;4.05;;;15.60;99.90;;;;;;5032418;28;20080;-66
2023/05/25 08:01:10;;;;;;;24.10;5.13;;;15.40;99.90;;;;;;5033983;28;20071;-68
2023/05/25 08:03:36;;;;;;;19.70;4.20;;;15.40;99.90;;;;;;5029401;28;20063;-66
2023/05/25 08:06:02;;;;;;;26.98;4.75;;;15.20;99.90;;;;;;5047082;28;20032;-66
2023/05/25 08:08:27;;;;;;;26.13;5.32;;;15.40;99.90;;;;;;5029361;28;20116;-67
2023/05/25 08:10:53;;;;;;;23.08;4.85;;;15.70;99.90;;;;;;5046116;28;20029;-67
2023/05/25 08:13:19;;;;;;;22.52;4.35;;;16.20;99.90;;;;;;5015472;28;20335;-67
2023/05/25 08:15:44;;;;;;;22.73;4.15;;;16.50;99.90;;;;;;5030921;28;20045;-67
2023/05/25 08:18:10;;;;;;;23.98;4.55;;;16.70;78.60;;;;;;5019102;28;20045;-66
2023/05/25 08:20:36;;;;;;;25.85;5.20;;;16.90;96.20;;;;;;5027929;28;20044;-66
2023/05/25 08:23:03;;;;;;;20.88;4.40;;;17.00;72.40;;;;;;5047068;28;20049;-65
2023/05/25 08:25:29;;;;;;;20.92;4.32;;;17.00;45.70;;;;;;5045801;28;20040;-66
2023/05/25 08:27:55;;;;;;;20.58;4.13;;;16.90;1.00;;;;;;5029707;28;20124;-66
2023/05/25 08:30:20;;;;;;;18.83;3.45;;;16.80;1.00;;;;;;5044543;28;20033;-66
2023/05/25 08:32:46;;;;;;;19.05;4.50;;;16.90;1.00;;;;;;5012235;28;20083;-66
2023/05/25 08:35:12;;;;;;;27.50;5.45;;;16.70;1.00;;;;;;5031330;28;20095;-67
2023/05/25 08:37:38;;;;;;;16.75;3.58;;;16.80;1.00;;;;;;5017835;28;20450;-66
2023/05/25 08:40:06;;;;;;;24.23;4.45;;;17.20;1.00;;;;;;5031655;28;20463;-66
2023/05/25 08:42:32;;;;;;;21.50;4.22;;;17.30;1.00;;;;;;5030309;28;20045;-67
2023/05/25 08:44:58;;;;;;;23.73;4.50;;;17.00;1.00;;;;;;5049687;28;20056;-66
2023/05/25 08:47:30;;;;;;;20.70;3.72;;;16.90;1.00;;;;;;5030324;28;20057;-66
2023/05/25 08:49:58;;;;;;;20.60;4.32;;;16.40;1.00;;;;;;5031166;28;20076;-67
2023/05/25 08:52:28;;;;;;;22.33;4.25;;;15.80;1.00;;;;;;5029794;28;20040;-66
2023/05/25 08:54:55;;;;;;;18.45;4.15;;;16.00;1.00;;;;;;5027259;28;20030;-66
2023/05/25 08:57:30;;;;;;;18.92;4.25;;;16.70;1.00;;;;;;5012644;28;20036;-66
2023/05/25 09:00:14;;;;;;;19.40;4.15;;;17.30;1.00;;;;;;5030235;28;20038;-66
2023/05/25 09:02:59;;;;;;;17.80;3.67;;;17.40;99.90;;;;;;5030080;28;20041;-66
2023/05/25 09:05:25;;;;;;;22.85;4.05;;;17.30;99.90;;;;;;5012100;28;20072;-66
2023/05/25 09:07:53;;;;;;;19.75;4.18;;;17.00;99.90;;;;;;5052398;28;20033;-67
2023/05/25 09:10:20;;;;;;;19.80;4.13;;;17.00;99.90;;;;;;5062507;28;20226;-66
2023/05/25 09:12:47;;;;;;;22.40;5.00;;;17.00;99.90;;;;;;5033265;28;20044;-66
2023/05/25 09:15:12;;;;;;;22.90;4.45;;;17.20;99.90;;;;;;5032075;28;20040;-67
2023/05/25 09:17:39;;;;;;;25.75;5.40;;;17.80;1.00;;;;;;5048253;28;20392;-65
2023/05/25 09:20:08;;;;;;;21.50;4.85;;;17.70;99.90;;;;;;5029853;28;20064;-66
2023/05/25 09:22:34;;;;;;;22.95;4.57;;;17.20;99.90;;;;;;5048262;28;20041;-66
2023/05/25 09:25:05;;;;;;;18.75;4.15;;;17.50;99.90;;;;;;5052166;28;20037;-65
2023/05/25 09:27:34;;;;;;;24.02;4.82;;;17.50;99.90;;;;;;5029234;28;20044;-66
2023/05/25 09:30:01;;;;;;;25.02;4.75;;;16.80;99.90;;;;;;5061153;28;20044;-66
2023/05/25 09:32:27;;;;;;;23.02;4.20;;;16.50;1.00;;;;;;5014034;28;20056;-66
2023/05/25 09:34:55;;;;;;;23.33;4.80;;;16.50;1.00;;;;;;5031166;28;20045;-66
2023/05/25 09:37:21;;;;;;;20.08;4.63;;;16.80;1.00;;;;;;5017707;28;20049;-67
2023/05/25 09:39:46;;;;;;;24.20;5.22;;;17.20;1.00;;;;;;5027634;28;20391;-66
2023/05/25 09:42:12;;;;;;;24.58;5.93;;;17.50;1.00;;;;;;5013446;28;20064;-66
2023/05/25 09:44:39;;;;;;;26.17;4.70;;;17.70;99.90;;;;;;5029514;28;20527;-66
2023/05/25 09:47:05;;;;;;;24.42;5.05;;;17.50;99.90;;;;;;5029794;28;20049;-66
2023/05/25 09:49:32;;;;;;;25.10;4.88;;;17.50;99.90;;;;;;5061755;28;20112;-66
2023/05/25 09:51:58;;;;;;;24.30;5.20;;;17.50;99.90;;;;;;5028763;28;20471;-66
2023/05/25 09:54:25;;;;;;;23.75;4.45;;;18.00;99.90;;;;;;5025119;28;20047;-67
2023/05/25 09:56:51;;;;;;;18.92;4.32;;;18.30;99.90;;;;;;5012891;28;20040;-67
2023/05/25 09:59:17;;;;;;;23.42;4.82;;;18.70;99.90;;;;;;5060785;28;20037;-65
2023/05/25 10:01:43;;;;;;;26.05;5.22;;;18.90;99.90;;;;;;5028124;28;20070;-66
2023/05/25 10:04:09;;;;;;;26.25;5.28;;;18.20;99.90;;;;;;5029131;28;20048;-66
2023/05/25 10:06:38;;;;;;;23.70;4.95;;;17.70;99.90;;;;;;5028207;28;20060;-66
2023/05/25 10:09:05;;;;;;;18.98;4.60;;;17.50;99.90;;;;;;5013073;28;20033;-66
2023/05/25 10:11:36;;;;;;;22.08;4.38;;;18.10;99.90;;;;;;5013185;28;20087;-66
2023/05/25 10:14:05;;;;;;;28.63;4.75;;;18.60;99.90;;;;;;5060191;28;20051;-66
2023/05/25 10:16:33;;;;;;;24.27;4.80;;;18.40;99.90;;;;;;5028945;28;20050;-67
2023/05/25 10:19:24;;;;;;;24.83;4.63;;;18.30;99.90;;;;;;5029625;28;20491;-66
2023/05/25 10:22:20;;;;;;;26.27;5.35;;;17.80;99.90;;;;;;5045659;28;20053;-65
2023/05/25 10:25:02;;;;;;;24.90;4.95;;;17.40;99.90;;;;;;5028851;28;20043;-66
2023/05/25 10:27:45;;;;;;;31.35;5.55;;;17.20;99.90;;;;;;5059786;28;20442;-67
2023/05/25 10:30:13;;;;;;;25.17;4.65;;;16.50;99.90;;;;;;5011899;28;20164;-66
2023/05/25 10:32:43;;;;;;;29.90;4.68;;;16.40;99.90;;;;;;5030258;28;20040;-66
2023/05/25 10:35:11;;;;;;;22.98;4.55;;;16.20;99.90;;;;;;5030104;28;20041;-66
2023/05/25 10:37:38;;;;;;;27.00;4.85;;;16.60;99.90;;;;;;5015502;28;20043;-66
2023/05/25 10:40:07;;;;;;;19.27;3.92;;;17.00;99.90;;;;;;5013588;28;20576;-66
2023/05/25 10:42:35;;;;;;;20.63;4.40;;;17.60;99.90;;;;;;5014142;28;20041;-67
2023/05/25 10:45:04;;;;;;;20.85;4.65;;;18.10;99.90;;;;;;4998165;28;20479;-67
2023/05/25 10:47:30;;;;;;;22.27;4.45;;;18.70;99.90;;;;;;5012999;28;20068;-67
2023/05/25 10:49:57;;;;;;;24.60;4.90;;;19.00;99.90;;;;;;5046168;28;20037;-67
2023/05/25 10:52:28;;;;;;;28.13;5.72;;;19.20;99.90;;;;;;5048650;28;20156;-67
2023/05/25 10:55:04;;;;;;;25.95;5.18;;;19.20;99.90;;;;;;5044966;28;20077;-66
2023/05/25 10:57:30;;;;;;;29.88;5.85;;;19.10;99.90;;;;;;5012964;28;20088;-67
2023/05/25 11:00:05;;;;;;;30.73;5.65;;;18.70;99.90;;;;;;5044989;28;20080;-67
2023/05/25 11:02:53;;;;;;;30.02;6.30;;;18.20;99.90;;;;;;5045056;28;20080;-67
2023/05/25 11:05:25;;;;;;;24.02;5.53;;;17.90;99.90;;;;;;5012431;28;20554;-67
2023/05/25 11:07:56;;;;;;;25.35;6.25;;;17.90;99.90;;;;;;5014219;28;20052;-67
2023/05/25 11:10:40;;;;;;;28.23;5.88;;;17.80;99.90;;;;;;5013340;28;20033;-67
2023/05/25 11:13:31;;;;;;;24.05;5.18;;;17.60;99.90;;;;;;4996003;28;20050;-67
2023/05/25 11:16:20;;;;;;;24.27;5.05;;;17.50;99.90;;;;;;5044390;28;20055;-67
2023/05/25 11:19:13;;;;;;;24.35;5.38;;;17.20;99.90;;;;;;5043870;28;20492;-66
2023/05/25 11:21:43;;;;;;;24.15;4.82;;;17.30;99.90;;;;;;5009493;28;20067;-68
2023/05/25 11:24:16;;;;;;;29.05;5.47;;;17.50;99.90;;;;;;5026292;28;20072;-67
2023/05/25 11:26:54;;;;;;;28.42;5.18;;;17.70;99.90;;;;;;5048059;28;20068;-67
2023/05/25 11:29:24;;;;;;;25.23;4.85;;;17.70;99.90;;;;;;5017241;28;20980;-67
2023/05/25 11:31:55;;;;;;;24.27;5.03;;;17.60;99.90;;;;;;5030839;28;20269;-67
2023/05/25 11:34:24;;;;;;;26.65;5.03;;;17.80;99.90;;;;;;5050388;28;20045;-67
2023/05/25 11:37:02;;;;;;;22.05;3.97;;;18.00;99.90;;;;;;5016353;28;20423;-67
2023/05/25 11:39:30;;;;;;;23.23;4.75;;;18.20;99.90;;;;;;5012799;28;20037;-67
2023/05/25 11:42:03;;;;;;;28.83;4.68;;;18.00;99.90;;;;;;5003777;28;20068;-66
2023/05/25 11:44:35;;;;;;;22.40;4.22;;;18.00;99.90;;;;;;5047618;28;20061;-67
2023/05/25 11:47:13;;;;;;;23.43;4.47;;;17.90;99.90;;;;;;5047160;28;20649;-67
2023/05/25 11:49:44;;;;;;;23.80;5.85;;;18.00;99.90;;;;;;5020896;28;20037;-67
2023/05/25 11:52:15;;;;;;;24.10;4.78;;;18.00;99.90;;;;;;5017429;28;20488;-67
2023/05/25 11:54:41;;;;;;;24.98;4.38;;;18.20;99.90;;;;;;5015957;28;20048;-67
2023/05/25 11:57:15;;;;;;;20.35;3.92;;;19.00;99.90;;;;;;4999768;28;20057;-67
2023/05/25 11:59:47;;;;;;;21.58;5.10;;;19.00;99.90;;;;;;5048251;28;20055;-67
2023/05/25 12:02:13;;;;;;;26.75;5.60;;;19.20;99.90;;;;;;5030267;28;20069;-67
2023/05/25 12:04:39;;;;;;;28.88;5.38;;;19.00;99.90;;;;;;5017953;28;20194;-67
2023/05/25 12:07:06;;;;;;;23.35;4.57;;;18.70;99.90;;;;;;5016434;28;20048;-67
2023/05/25 12:09:33;;;;;;;21.73;4.28;;;18.80;99.90;;;;;;5045146;28;20591;-67
2023/05/25 12:11:59;;;;;;;21.00;4.50;;;19.20;99.90;;;;;;5063230;28;20639;-66
2023/05/25 12:14:25;;;;;;;23.80;4.55;;;19.00;99.90;;;;;;5049001;28;20051;-66
2023/05/25 12:16:51;;;;;;;22.73;4.70;;;18.90;99.90;;;;;;5032758;28;20399;-66
2023/05/25 12:19:17;;;;;;;22.90;4.60;;;18.80;99.90;;;;;;5030261;28;20052;-67
2023/05/25 12:21:44;;;;;;;23.27;5.05;;;18.70;99.90;;;;;;5016132;28;20067;-66
2023/05/25 12:24:13;;;;;;;25.98;5.13;;;18.70;99.90;;;;;;5009985;28;20149;-67
2023/05/25 12:26:50;;;;;;;26.27;5.13;;;18.40;99.90;;;;;;5062686;28;20509;-66
2023/05/25 12:29:16;;;;;;;27.85;5.93;;;18.30;99.90;;;;;;5031803;28;20037;-66
2023/05/25 12:31:42;;;;;;;24.17;4.93;;;18.10;99.90;;;;;;5060499;28;20034;-67
2023/05/25 12:34:10;;;;;;;25.60;5.20;;;17.80;99.90;;;;;;5064368;28;20612;-66
2023/05/25 12:36:52;;;;;;;27.17;5.97;;;17.60;99.90;;;;;;5011891;28;20033;-67
2023/05/25 12:39:39;;;;;;;29.83;5.22;;;17.60;99.90;;;;;;5026203;28;20395;-66
2023/05/25 12:42:12;;;;;;;31.10;6.13;;;17.70;99.90;;;;;;5059502;28;20136;-67
2023/05/25 12:44:38;;;;;;;30.25;6.40;;;17.80;99.90;;;;;;5029243;28;20061;-65
2023/05/25 12:47:12;;;;;;;22.85;5.03;;;17.60;99.90;;;;;;5028234;28;20077;-65
2023/05/25 12:49:38;;;;;;;23.73;5.03;;;17.30;99.90;;;;;;5059235;28;20033;-66